sensor_id;sensor_type;location;lat;lon;timestamp;P1;durP1;ratioP1;P2;durP2;ratioP2
18378;SDS011;27025;51.986;5.984;2023-04-03T00:00:09;3.47;;;2.30;;
18378;SDS011;27025;51.986;5.984;2023-04-03T00:02:35;3.72;;;2.30;;
18378;SDS011;27025;51.986;5.984;2023-04-03T00:05:01;5.25;;;2.55;;
18378;SDS011;27025;51.986;5.984;2023-04-03T00:07:27;4.85;;;2.63;;
18378;SDS011;27025;51.986;5.984;2023-04-03T00:09:53;4.57;;;2.40;;
18378;SDS011;27025;51.986;5.984;2023-04-03T00:12:19;4.68;;;2.45;;
18378;SDS011;27025;51.986;5.984;2023-04-03T00:14:45;5.68;;;2.55;;
18378;SDS011;27025;51.986;5.984;2023-04-03T00:17:11;4.63;;;2.43;;
18378;SDS011;27025;51.986;5.984;2023-04-03T00:19:38;4.00;;;2.30;;
18378;SDS011;27025;51.986;5.984;2023-04-03T00:22:04;4.72;;;2.42;;
18378;SDS011;27025;51.986;5.984;2023-04-03T00:24:32;4.10;;;2.60;;
18378;SDS011;27025;51.986;5.984;2023-04-03T00:26:58;4.47;;;2.47;;
18378;SDS011;27025;51.986;5.984;2023-04-03T00:29:24;5.10;;;2.20;;
18378;SDS011;27025;51.986;5.984;2023-04-03T00:31:51;4.25;;;2.47;;
18378;SDS011;27025;51.986;5.984;2023-04-03T00:34:17;5.15;;;2.60;;
18378;SDS011;27025;51.986;5.984;2023-04-03T00:36:43;4.50;;;2.58;;
18378;SDS011;27025;51.986;5.984;2023-04-03T00:39:09;4.55;;;2.60;;
18378;SDS011;27025;51.986;5.984;2023-04-03T00:41:35;4.95;;;2.70;;
18378;SDS011;27025;51.986;5.984;2023-04-03T00:44:17;3.92;;;2.50;;
18378;SDS011;27025;51.986;5.984;2023-04-03T00:46:43;3.42;;;2.50;;
18378;SDS011;27025;51.986;5.984;2023-04-03T00:49:09;5.15;;;2.63;;
18378;SDS011;27025;51.986;5.984;2023-04-03T00:51:35;4.53;;;2.50;;
18378;SDS011;27025;51.986;5.984;2023-04-03T00:54:02;4.20;;;2.60;;
18378;SDS011;27025;51.986;5.984;2023-04-03T00:56:30;4.75;;;2.70;;
18378;SDS011;27025;51.986;5.984;2023-04-03T00:58:58;3.83;;;2.40;;
18378;SDS011;27025;51.986;5.984;2023-04-03T01:01:26;5.07;;;2.80;;
18378;SDS011;27025;51.986;5.984;2023-04-03T01:03:53;5.57;;;2.60;;
18378;SDS011;27025;51.986;5.984;2023-04-03T01:06:20;4.35;;;2.53;;
18378;SDS011;27025;51.986;5.984;2023-04-03T01:08:48;5.22;;;2.72;;
18378;SDS011;27025;51.986;5.984;2023-04-03T01:11:15;4.53;;;2.80;;
18378;SDS011;27025;51.986;5.984;2023-04-03T01:13:41;4.95;;;2.70;;
18378;SDS011;27025;51.986;5.984;2023-04-03T01:16:07;5.38;;;2.92;;
18378;SDS011;27025;51.986;5.984;2023-04-03T01:18:33;5.22;;;2.85;;
18378;SDS011;27025;51.986;5.984;2023-04-03T01:21:09;4.65;;;2.70;;
18378;SDS011;27025;51.986;5.984;2023-04-03T01:23:49;4.85;;;2.80;;
18378;SDS011;27025;51.986;5.984;2023-04-03T01:26:17;6.30;;;3.03;;
18378;SDS011;27025;51.986;5.984;2023-04-03T01:28:43;5.45;;;2.92;;
18378;SDS011;27025;51.986;5.984;2023-04-03T01:31:15;5.25;;;2.80;;
18378;SDS011;27025;51.986;5.984;2023-04-03T01:33:45;5.00;;;2.80;;
18378;SDS011;27025;51.986;5.984;2023-04-03T01:36:16;5.32;;;3.00;;
18378;SDS011;27025;51.986;5.984;2023-04-03T01:38:43;5.38;;;2.90;;
18378;SDS011;27025;51.986;5.984;2023-04-03T01:41:09;3.95;;;2.75;;
18378;SDS011;27025;51.986;5.984;2023-04-03T01:43:35;5.63;;;2.97;;
18378;SDS011;27025;51.986;5.984;2023-04-03T01:46:01;4.38;;;2.60;;
18378;SDS011;27025;51.986;5.984;2023-04-03T01:48:27;5.57;;;2.95;;
18378;SDS011;27025;51.986;5.984;2023-04-03T01:50:53;6.18;;;2.65;;
18378;SDS011;27025;51.986;5.984;2023-04-03T01:53:19;5.70;;;2.60;;
18378;SDS011;27025;51.986;5.984;2023-04-03T01:55:46;5.53;;;2.90;;
18378;SDS011;27025;51.986;5.984;2023-04-03T01:58:12;6.32;;;3.05;;
18378;SDS011;27025;51.986;5.984;2023-04-03T02:00:38;5.72;;;3.00;;
18378;SDS011;27025;51.986;5.984;2023-04-03T02:03:04;6.65;;;3.22;;
18378;SDS011;27025;51.986;5.984;2023-04-03T02:05:30;5.88;;;3.00;;
18378;SDS011;27025;51.986;5.984;2023-04-03T02:07:56;5.97;;;3.17;;
18378;SDS011;27025;51.986;5.984;2023-04-03T02:10:22;5.30;;;3.05;;
18378;SDS011;27025;51.986;5.984;2023-04-03T02:12:48;5.97;;;3.30;;
18378;SDS011;27025;51.986;5.984;2023-04-03T02:15:14;6.32;;;2.90;;
18378;SDS011;27025;51.986;5.984;2023-04-03T02:17:40;5.35;;;2.90;;
18378;SDS011;27025;51.986;5.984;2023-04-03T02:20:06;5.10;;;3.05;;
18378;SDS011;27025;51.986;5.984;2023-04-03T02:22:33;7.10;;;2.90;;
18378;SDS011;27025;51.986;5.984;2023-04-03T02:24:59;6.05;;;2.95;;
18378;SDS011;27025;51.986;5.984;2023-04-03T02:27:25;5.28;;;2.95;;
18378;SDS011;27025;51.986;5.984;2023-04-03T02:29:51;5.85;;;2.88;;
18378;SDS011;27025;51.986;5.984;2023-04-03T02:32:17;5.55;;;2.90;;
18378;SDS011;27025;51.986;5.984;2023-04-03T02:34:43;6.38;;;3.10;;
18378;SDS011;27025;51.986;5.984;2023-04-03T02:37:10;6.25;;;3.35;;
18378;SDS011;27025;51.986;5.984;2023-04-03T02:39:36;5.60;;;3.00;;
18378;SDS011;27025;51.986;5.984;2023-04-03T02:42:02;6.33;;;3.27;;
18378;SDS011;27025;51.986;5.984;2023-04-03T02:44:28;6.20;;;3.00;;
18378;SDS011;27025;51.986;5.984;2023-04-03T02:46:54;5.13;;;2.95;;
18378;SDS011;27025;51.986;5.984;2023-04-03T02:49:20;6.53;;;3.05;;
18378;SDS011;27025;51.986;5.984;2023-04-03T02:51:46;6.72;;;3.00;;
18378;SDS011;27025;51.986;5.984;2023-04-03T02:54:13;6.90;;;3.25;;
18378;SDS011;27025;51.986;5.984;2023-04-03T02:56:39;6.07;;;3.20;;
18378;SDS011;27025;51.986;5.984;2023-04-03T02:59:05;7.03;;;3.20;;
18378;SDS011;27025;51.986;5.984;2023-04-03T03:01:31;6.60;;;3.35;;
18378;SDS011;27025;51.986;5.984;2023-04-03T03:03:58;5.95;;;3.10;;
18378;SDS011;27025;51.986;5.984;2023-04-03T03:06:25;6.20;;;3.15;;
18378;SDS011;27025;51.986;5.984;2023-04-03T03:08:51;8.30;;;3.15;;
18378;SDS011;27025;51.986;5.984;2023-04-03T03:11:17;4.97;;;3.08;;
18378;SDS011;27025;51.986;5.984;2023-04-03T03:13:43;6.95;;;3.20;;
18378;SDS011;27025;51.986;5.984;2023-04-03T03:16:09;8.77;;;3.42;;
18378;SDS011;27025;51.986;5.984;2023-04-03T03:18:35;5.63;;;3.50;;
18378;SDS011;27025;51.986;5.984;2023-04-03T03:21:01;7.60;;;3.30;;
18378;SDS011;27025;51.986;5.984;2023-04-03T03:23:28;6.60;;;3.40;;
18378;SDS011;27025;51.986;5.984;2023-04-03T03:25:55;7.22;;;3.58;;
18378;SDS011;27025;51.986;5.984;2023-04-03T03:28:22;5.45;;;3.30;;
18378;SDS011;27025;51.986;5.984;2023-04-03T03:30:48;6.97;;;3.40;;
18378;SDS011;27025;51.986;5.984;2023-04-03T03:33:14;6.05;;;3.15;;
18378;SDS011;27025;51.986;5.984;2023-04-03T03:35:40;7.35;;;3.40;;
18378;SDS011;27025;51.986;5.984;2023-04-03T03:38:06;5.82;;;3.50;;
18378;SDS011;27025;51.986;5.984;2023-04-03T03:40:32;5.57;;;3.05;;
18378;SDS011;27025;51.986;5.984;2023-04-03T03:42:58;7.40;;;3.30;;
18378;SDS011;27025;51.986;5.984;2023-04-03T03:45:25;7.65;;;3.15;;
18378;SDS011;27025;51.986;5.984;2023-04-03T03:47:51;8.10;;;3.30;;
18378;SDS011;27025;51.986;5.984;2023-04-03T03:50:17;5.70;;;3.30;;
18378;SDS011;27025;51.986;5.984;2023-04-03T03:52:43;7.40;;;3.47;;
18378;SDS011;27025;51.986;5.984;2023-04-03T03:55:09;7.47;;;3.60;;
18378;SDS011;27025;51.986;5.984;2023-04-03T03:57:35;7.95;;;3.45;;
18378;SDS011;27025;51.986;5.984;2023-04-03T04:00:02;6.60;;;3.40;;
18378;SDS011;27025;51.986;5.984;2023-04-03T04:02:29;5.90;;;3.22;;
18378;SDS011;27025;51.986;5.984;2023-04-03T04:04:55;7.20;;;3.40;;
18378;SDS011;27025;51.986;5.984;2023-04-03T04:07:21;7.75;;;3.20;;
18378;SDS011;27025;51.986;5.984;2023-04-03T04:09:48;6.97;;;3.22;;
18378;SDS011;27025;51.986;5.984;2023-04-03T04:12:14;7.90;;;3.40;;
18378;SDS011;27025;51.986;5.984;2023-04-03T04:14:41;6.07;;;3.35;;
18378;SDS011;27025;51.986;5.984;2023-04-03T04:17:07;7.15;;;3.25;;
18378;SDS011;27025;51.986;5.984;2023-04-03T04:19:33;5.78;;;3.10;;
18378;SDS011;27025;51.986;5.984;2023-04-03T04:21:59;6.43;;;3.20;;
18378;SDS011;27025;51.986;5.984;2023-04-03T04:24:25;7.27;;;3.43;;
18378;SDS011;27025;51.986;5.984;2023-04-03T04:26:51;9.23;;;3.65;;
18378;SDS011;27025;51.986;5.984;2023-04-03T04:29:17;9.15;;;3.30;;
18378;SDS011;27025;51.986;5.984;2023-04-03T04:31:43;6.43;;;3.45;;
18378;SDS011;27025;51.986;5.984;2023-04-03T04:34:09;7.90;;;3.50;;
18378;SDS011;27025;51.986;5.984;2023-04-03T04:36:35;9.00;;;3.20;;
18378;SDS011;27025;51.986;5.984;2023-04-03T04:39:01;8.88;;;3.40;;
18378;SDS011;27025;51.986;5.984;2023-04-03T04:41:27;6.50;;;3.30;;
18378;SDS011;27025;51.986;5.984;2023-04-03T04:43:53;7.03;;;3.30;;
18378;SDS011;27025;51.986;5.984;2023-04-03T04:46:19;6.32;;;3.38;;
18378;SDS011;27025;51.986;5.984;2023-04-03T04:48:45;8.82;;;3.63;;
18378;SDS011;27025;51.986;5.984;2023-04-03T04:51:13;7.40;;;3.55;;
18378;SDS011;27025;51.986;5.984;2023-04-03T04:53:39;6.85;;;3.40;;
18378;SDS011;27025;51.986;5.984;2023-04-03T04:56:05;6.85;;;3.33;;
18378;SDS011;27025;51.986;5.984;2023-04-03T04:58:31;6.90;;;3.43;;
18378;SDS011;27025;51.986;5.984;2023-04-03T05:01:01;8.88;;;3.55;;
18378;SDS011;27025;51.986;5.984;2023-04-03T05:03:27;7.87;;;3.50;;
18378;SDS011;27025;51.986;5.984;2023-04-03T05:05:53;8.25;;;3.53;;
18378;SDS011;27025;51.986;5.984;2023-04-03T05:08:19;6.68;;;3.40;;
18378;SDS011;27025;51.986;5.984;2023-04-03T05:10:45;8.00;;;3.30;;
18378;SDS011;27025;51.986;5.984;2023-04-03T05:13:12;5.68;;;3.15;;
18378;SDS011;27025;51.986;5.984;2023-04-03T05:15:38;7.70;;;3.80;;
18378;SDS011;27025;51.986;5.984;2023-04-03T05:18:04;8.48;;;3.47;;
18378;SDS011;27025;51.986;5.984;2023-04-03T05:20:30;8.27;;;3.38;;
18378;SDS011;27025;51.986;5.984;2023-04-03T05:22:56;9.40;;;3.67;;
18378;SDS011;27025;51.986;5.984;2023-04-03T05:25:22;8.55;;;3.40;;
18378;SDS011;27025;51.986;5.984;2023-04-03T05:27:49;7.13;;;3.40;;
18378;SDS011;27025;51.986;5.984;2023-04-03T05:30:15;8.03;;;3.30;;
18378;SDS011;27025;51.986;5.984;2023-04-03T05:32:41;6.72;;;3.35;;
18378;SDS011;27025;51.986;5.984;2023-04-03T05:35:07;8.52;;;3.47;;
18378;SDS011;27025;51.986;5.984;2023-04-03T05:37:33;6.97;;;3.40;;
18378;SDS011;27025;51.986;5.984;2023-04-03T05:39:59;8.17;;;3.27;;
18378;SDS011;27025;51.986;5.984;2023-04-03T05:42:26;8.77;;;3.45;;
18378;SDS011;27025;51.986;5.984;2023-04-03T05:44:52;8.77;;;3.20;;
18378;SDS011;27025;51.986;5.984;2023-04-03T05:47:18;6.85;;;3.22;;
18378;SDS011;27025;51.986;5.984;2023-04-03T05:49:45;7.70;;;3.43;;
18378;SDS011;27025;51.986;5.984;2023-04-03T05:52:21;7.47;;;3.30;;
18378;SDS011;27025;51.986;5.984;2023-04-03T05:54:48;9.82;;;3.42;;
18378;SDS011;27025;51.986;5.984;2023-04-03T05:57:15;7.68;;;3.40;;
18378;SDS011;27025;51.986;5.984;2023-04-03T05:59:42;5.97;;;3.40;;
18378;SDS011;27025;51.986;5.984;2023-04-03T06:02:10;7.47;;;3.35;;
18378;SDS011;27025;51.986;5.984;2023-04-03T06:04:37;6.78;;;3.10;;
18378;SDS011;27025;51.986;5.984;2023-04-03T06:07:03;7.60;;;3.22;;
18378;SDS011;27025;51.986;5.984;2023-04-03T06:09:29;7.57;;;3.40;;
18378;SDS011;27025;51.986;5.984;2023-04-03T06:11:56;7.67;;;3.43;;
18378;SDS011;27025;51.986;5.984;2023-04-03T06:14:23;7.65;;;3.35;;
18378;SDS011;27025;51.986;5.984;2023-04-03T06:16:50;6.50;;;3.05;;
18378;SDS011;27025;51.986;5.984;2023-04-03T06:19:16;9.55;;;3.60;;
18378;SDS011;27025;51.986;5.984;2023-04-03T06:21:42;8.32;;;3.38;;
18378;SDS011;27025;51.986;5.984;2023-04-03T06:24:09;8.73;;;3.70;;
18378;SDS011;27025;51.986;5.984;2023-04-03T06:26:35;6.53;;;3.30;;
18378;SDS011;27025;51.986;5.984;2023-04-03T06:29:01;7.03;;;3.13;;
18378;SDS011;27025;51.986;5.984;2023-04-03T06:31:27;6.10;;;3.50;;
18378;SDS011;27025;51.986;5.984;2023-04-03T06:33:53;7.82;;;3.30;;
18378;SDS011;27025;51.986;5.984;2023-04-03T06:36:20;6.53;;;2.90;;
18378;SDS011;27025;51.986;5.984;2023-04-03T06:38:46;7.13;;;3.30;;
18378;SDS011;27025;51.986;5.984;2023-04-03T06:41:13;5.27;;;2.67;;
18378;SDS011;27025;51.986;5.984;2023-04-03T06:43:39;6.47;;;2.50;;
18378;SDS011;27025;51.986;5.984;2023-04-03T06:46:05;7.17;;;2.60;;
18378;SDS011;27025;51.986;5.984;2023-04-03T06:48:31;8.15;;;3.08;;
18378;SDS011;27025;51.986;5.984;2023-04-03T06:50:57;7.53;;;2.73;;
18378;SDS011;27025;51.986;5.984;2023-04-03T06:53:23;6.85;;;3.10;;
18378;SDS011;27025;51.986;5.984;2023-04-03T06:55:50;6.25;;;3.08;;
18378;SDS011;27025;51.986;5.984;2023-04-03T06:58:16;5.20;;;2.88;;
18378;SDS011;27025;51.986;5.984;2023-04-03T07:00:42;8.13;;;3.33;;
18378;SDS011;27025;51.986;5.984;2023-04-03T07:03:08;7.00;;;2.85;;
18378;SDS011;27025;51.986;5.984;2023-04-03T07:05:34;5.90;;;2.85;;
18378;SDS011;27025;51.986;5.984;2023-04-03T07:08:00;8.80;;;3.40;;
18378;SDS011;27025;51.986;5.984;2023-04-03T07:10:26;6.07;;;2.77;;
18378;SDS011;27025;51.986;5.984;2023-04-03T07:12:52;7.63;;;3.08;;
18378;SDS011;27025;51.986;5.984;2023-04-03T07:15:18;5.30;;;2.50;;
18378;SDS011;27025;51.986;5.984;2023-04-03T07:17:44;5.07;;;2.60;;
18378;SDS011;27025;51.986;5.984;2023-04-03T07:20:11;4.13;;;2.40;;
18378;SDS011;27025;51.986;5.984;2023-04-03T07:22:37;6.28;;;3.15;;
18378;SDS011;27025;51.986;5.984;2023-04-03T07:25:03;5.83;;;2.80;;
18378;SDS011;27025;51.986;5.984;2023-04-03T07:27:32;6.60;;;2.80;;
18378;SDS011;27025;51.986;5.984;2023-04-03T07:29:58;6.55;;;2.90;;
18378;SDS011;27025;51.986;5.984;2023-04-03T07:32:24;6.28;;;2.90;;
18378;SDS011;27025;51.986;5.984;2023-04-03T07:34:50;6.13;;;2.75;;
18378;SDS011;27025;51.986;5.984;2023-04-03T07:37:16;4.55;;;2.45;;
18378;SDS011;27025;51.986;5.984;2023-04-03T07:39:46;4.77;;;2.60;;
18378;SDS011;27025;51.986;5.984;2023-04-03T07:42:13;5.40;;;2.80;;
18378;SDS011;27025;51.986;5.984;2023-04-03T07:44:39;7.15;;;2.78;;
18378;SDS011;27025;51.986;5.984;2023-04-03T07:47:06;5.72;;;2.80;;
18378;SDS011;27025;51.986;5.984;2023-04-03T07:49:32;5.82;;;2.80;;
18378;SDS011;27025;51.986;5.984;2023-04-03T07:51:59;8.47;;;2.90;;
18378;SDS011;27025;51.986;5.984;2023-04-03T07:54:25;5.28;;;2.83;;
18378;SDS011;27025;51.986;5.984;2023-04-03T07:56:51;5.60;;;2.70;;
18378;SDS011;27025;51.986;5.984;2023-04-03T07:59:17;6.10;;;2.60;;
18378;SDS011;27025;51.986;5.984;2023-04-03T08:01:43;5.30;;;2.70;;
18378;SDS011;27025;51.986;5.984;2023-04-03T08:04:10;5.32;;;2.60;;
18378;SDS011;27025;51.986;5.984;2023-04-03T08:06:36;4.57;;;2.42;;
18378;SDS011;27025;51.986;5.984;2023-04-03T08:09:02;5.97;;;2.67;;
18378;SDS011;27025;51.986;5.984;2023-04-03T08:11:29;4.90;;;2.33;;
18378;SDS011;27025;51.986;5.984;2023-04-03T08:13:55;4.93;;;2.23;;
18378;SDS011;27025;51.986;5.984;2023-04-03T08:16:22;5.25;;;2.20;;
18378;SDS011;27025;51.986;5.984;2023-04-03T08:18:51;6.05;;;2.50;;
18378;SDS011;27025;51.986;5.984;2023-04-03T08:21:17;4.47;;;2.30;;
18378;SDS011;27025;51.986;5.984;2023-04-03T08:23:43;4.63;;;2.53;;
18378;SDS011;27025;51.986;5.984;2023-04-03T08:26:11;4.75;;;1.95;;
18378;SDS011;27025;51.986;5.984;2023-04-03T08:28:37;3.92;;;1.90;;
18378;SDS011;27025;51.986;5.984;2023-04-03T08:31:05;3.47;;;2.00;;
18378;SDS011;27025;51.986;5.984;2023-04-03T08:33:32;3.88;;;2.10;;
18378;SDS011;27025;51.986;5.984;2023-04-03T08:35:58;4.63;;;1.97;;
18378;SDS011;27025;51.986;5.984;2023-04-03T08:38:24;3.25;;;1.90;;
18378;SDS011;27025;51.986;5.984;2023-04-03T08:46:22;3.20;;;1.30;;
18378;SDS011;27025;51.986;5.984;2023-04-03T08:48:51;3.20;;;1.30;;
18378;SDS011;27025;51.986;5.984;2023-04-03T08:51:20;2.37;;;1.30;;
18378;SDS011;27025;51.986;5.984;2023-04-03T08:53:51;3.53;;;1.53;;
18378;SDS011;27025;51.986;5.984;2023-04-03T08:56:21;2.40;;;1.50;;
18378;SDS011;27025;51.986;5.984;2023-04-03T08:58:50;2.87;;;1.30;;
18378;SDS011;27025;51.986;5.984;2023-04-03T09:01:33;3.23;;;1.37;;
18378;SDS011;27025;51.986;5.984;2023-04-03T09:04:01;1.40;;;1.10;;
18378;SDS011;27025;51.986;5.984;2023-04-03T09:06:29;2.10;;;1.37;;
18378;SDS011;27025;51.986;5.984;2023-04-03T09:11:44;1.87;;;1.10;;
18378;SDS011;27025;51.986;5.984;2023-04-03T09:14:19;2.27;;;1.20;;
18378;SDS011;27025;51.986;5.984;2023-04-03T09:16:58;1.60;;;1.10;;
18378;SDS011;27025;51.986;5.984;2023-04-03T09:22:20;2.13;;;1.20;;
18378;SDS011;27025;51.986;5.984;2023-04-03T09:24:48;2.30;;;1.20;;
18378;SDS011;27025;51.986;5.984;2023-04-03T09:27:16;1.37;;;1.00;;
18378;SDS011;27025;51.986;5.984;2023-04-03T09:29:43;1.77;;;0.80;;
18378;SDS011;27025;51.986;5.984;2023-04-03T09:32:32;1.67;;;0.90;;
18378;SDS011;27025;51.986;5.984;2023-04-03T09:35:00;1.37;;;0.90;;
18378;SDS011;27025;51.986;5.984;2023-04-03T09:40:01;1.07;;;0.90;;
18378;SDS011;27025;51.986;5.984;2023-04-03T09:42:29;1.87;;;1.03;;
18378;SDS011;27025;51.986;5.984;2023-04-03T09:44:57;2.40;;;1.30;;
18378;SDS011;27025;51.986;5.984;2023-04-03T09:47:24;1.53;;;1.00;;
18378;SDS011;27025;51.986;5.984;2023-04-03T09:49:54;1.87;;;1.10;;
18378;SDS011;27025;51.986;5.984;2023-04-03T09:52:34;2.23;;;1.10;;
18378;SDS011;27025;51.986;5.984;2023-04-03T09:55:07;2.30;;;1.00;;
18378;SDS011;27025;51.986;5.984;2023-04-03T09:57:34;1.70;;;1.00;;
18378;SDS011;27025;51.986;5.984;2023-04-03T10:00:01;2.17;;;1.10;;
18378;SDS011;27025;51.986;5.984;2023-04-03T10:05:02;1.83;;;1.00;;
18378;SDS011;27025;51.986;5.984;2023-04-03T10:07:35;3.53;;;1.03;;
18378;SDS011;27025;51.986;5.984;2023-04-03T10:12:40;2.47;;;1.03;;
18378;SDS011;27025;51.986;5.984;2023-04-03T10:15:13;2.20;;;1.10;;
18378;SDS011;27025;51.986;5.984;2023-04-03T10:25:19;1.20;;;1.10;;
18378;SDS011;27025;51.986;5.984;2023-04-03T10:38:24;2.03;;;1.17;;
18378;SDS011;27025;51.986;5.984;2023-04-03T10:41:07;2.22;;;1.30;;
18378;SDS011;27025;51.986;5.984;2023-04-03T10:46:27;2.10;;;1.47;;
18378;SDS011;27025;51.986;5.984;2023-04-03T10:51:33;2.13;;;1.23;;
18378;SDS011;27025;51.986;5.984;2023-04-03T10:56:41;2.17;;;1.30;;
18378;SDS011;27025;51.986;5.984;2023-04-03T11:01:38;1.90;;;1.10;;
18378;SDS011;27025;51.986;5.984;2023-04-03T11:04:05;3.37;;;1.40;;
18378;SDS011;27025;51.986;5.984;2023-04-03T11:06:34;1.17;;;1.00;;
18378;SDS011;27025;51.986;5.984;2023-04-03T11:09:07;1.70;;;1.30;;
18378;SDS011;27025;51.986;5.984;2023-04-03T11:11:39;2.53;;;1.20;;
18378;SDS011;27025;51.986;5.984;2023-04-03T11:14:18;2.77;;;1.50;;
18378;SDS011;27025;51.986;5.984;2023-04-03T11:16:46;3.33;;;1.50;;
18378;SDS011;27025;51.986;5.984;2023-04-03T11:21:48;2.10;;;1.20;;
18378;SDS011;27025;51.986;5.984;2023-04-03T11:24:22;2.10;;;1.13;;
18378;SDS011;27025;51.986;5.984;2023-04-03T11:26:50;2.90;;;1.23;;
18378;SDS011;27025;51.986;5.984;2023-04-03T11:29:19;3.63;;;1.30;;
18378;SDS011;27025;51.986;5.984;2023-04-03T11:34:44;2.27;;;1.10;;
18378;SDS011;27025;51.986;5.984;2023-04-03T11:37:57;2.00;;;1.20;;
18378;SDS011;27025;51.986;5.984;2023-04-03T11:39:59;2.40;;;1.27;;
18378;SDS011;27025;51.986;5.984;2023-04-03T11:42:37;1.90;;;1.20;;
18378;SDS011;27025;51.986;5.984;2023-04-03T11:47:44;2.10;;;1.20;;
18378;SDS011;27025;51.986;5.984;2023-04-03T11:52:56;2.63;;;1.20;;
18378;SDS011;27025;51.986;5.984;2023-04-03T12:05:51;2.83;;;1.10;;
18378;SDS011;27025;51.986;5.984;2023-04-03T12:10:55;2.57;;;1.10;;
18378;SDS011;27025;51.986;5.984;2023-04-03T12:13:29;2.17;;;1.30;;
18378;SDS011;27025;51.986;5.984;2023-04-03T12:15:56;5.17;;;1.23;;
18378;SDS011;27025;51.986;5.984;2023-04-03T12:18:41;3.13;;;1.43;;
18378;SDS011;27025;51.986;5.984;2023-04-03T12:21:08;1.47;;;1.13;;
18378;SDS011;27025;51.986;5.984;2023-04-03T12:23:36;2.50;;;1.47;;
18378;SDS011;27025;51.986;5.984;2023-04-03T12:28:31;1.93;;;1.50;;
18378;SDS011;27025;51.986;5.984;2023-04-03T12:31:01;2.33;;;1.37;;
18378;SDS011;27025;51.986;5.984;2023-04-03T12:33:31;3.50;;;1.57;;
18378;SDS011;27025;51.986;5.984;2023-04-03T12:46:21;2.00;;;1.20;;
18378;SDS011;27025;51.986;5.984;2023-04-03T12:51:14;1.57;;;1.30;;
18378;SDS011;27025;51.986;5.984;2023-04-03T12:53:41;3.27;;;1.40;;
18378;SDS011;27025;51.986;5.984;2023-04-03T12:56:21;2.87;;;1.33;;
18378;SDS011;27025;51.986;5.984;2023-04-03T12:58:49;2.90;;;1.30;;
18378;SDS011;27025;51.986;5.984;2023-04-03T13:01:19;2.90;;;1.43;;
18378;SDS011;27025;51.986;5.984;2023-04-03T13:04:04;2.60;;;1.20;;
18378;SDS011;27025;51.986;5.984;2023-04-03T13:06:32;4.20;;;1.50;;
18378;SDS011;27025;51.986;5.984;2023-04-03T13:09:00;5.00;;;1.50;;
18378;SDS011;27025;51.986;5.984;2023-04-03T13:11:27;3.00;;;1.40;;
18378;SDS011;27025;51.986;5.984;2023-04-03T13:14:01;2.13;;;1.30;;
18378;SDS011;27025;51.986;5.984;2023-04-03T13:16:30;2.67;;;1.40;;
18378;SDS011;27025;51.986;5.984;2023-04-03T13:18:56;3.13;;;1.40;;
18378;SDS011;27025;51.986;5.984;2023-04-03T13:21:26;2.53;;;1.50;;
18378;SDS011;27025;51.986;5.984;2023-04-03T13:23:54;3.07;;;1.70;;
18378;SDS011;27025;51.986;5.984;2023-04-03T13:26:22;2.97;;;1.63;;
18378;SDS011;27025;51.986;5.984;2023-04-03T13:28:49;4.07;;;1.60;;
18378;SDS011;27025;51.986;5.984;2023-04-03T13:31:20;2.07;;;1.30;;
18378;SDS011;27025;51.986;5.984;2023-04-03T13:34:06;2.33;;;1.27;;
18378;SDS011;27025;51.986;5.984;2023-04-03T13:36:33;2.20;;;1.40;;
18378;SDS011;27025;51.986;5.984;2023-04-03T13:41:33;3.00;;;1.63;;
18378;SDS011;27025;51.986;5.984;2023-04-03T13:46:44;3.33;;;1.60;;
18378;SDS011;27025;51.986;5.984;2023-04-03T13:51:45;2.40;;;1.43;;
18378;SDS011;27025;51.986;5.984;2023-04-03T13:54:23;2.60;;;1.50;;
18378;SDS011;27025;51.986;5.984;2023-04-03T13:56:56;3.17;;;1.53;;
18378;SDS011;27025;51.986;5.984;2023-04-03T13:59:33;5.50;;;1.70;;
18378;SDS011;27025;51.986;5.984;2023-04-03T14:04:27;2.63;;;1.60;;
18378;SDS011;27025;51.986;5.984;2023-04-03T14:06:54;3.13;;;1.60;;
18378;SDS011;27025;51.986;5.984;2023-04-03T14:09:21;4.00;;;1.70;;
18378;SDS011;27025;51.986;5.984;2023-04-03T14:11:48;3.37;;;1.87;;
18378;SDS011;27025;51.986;5.984;2023-04-03T14:14:17;4.57;;;1.67;;
18378;SDS011;27025;51.986;5.984;2023-04-03T14:16:46;2.40;;;1.60;;
18378;SDS011;27025;51.986;5.984;2023-04-03T14:19:17;2.20;;;1.60;;
18378;SDS011;27025;51.986;5.984;2023-04-03T14:21:45;2.73;;;1.60;;
18378;SDS011;27025;51.986;5.984;2023-04-03T14:24:11;4.90;;;1.60;;
18378;SDS011;27025;51.986;5.984;2023-04-03T14:26:38;2.73;;;1.60;;
18378;SDS011;27025;51.986;5.984;2023-04-03T14:29:04;3.60;;;1.77;;
18378;SDS011;27025;51.986;5.984;2023-04-03T14:31:31;3.00;;;1.80;;
18378;SDS011;27025;51.986;5.984;2023-04-03T14:33:57;2.60;;;1.60;;
18378;SDS011;27025;51.986;5.984;2023-04-03T14:36:23;3.70;;;1.70;;
18378;SDS011;27025;51.986;5.984;2023-04-03T14:38:51;6.27;;;2.10;;
18378;SDS011;27025;51.986;5.984;2023-04-03T14:41:18;3.20;;;1.80;;
18378;SDS011;27025;51.986;5.984;2023-04-03T14:43:45;2.53;;;1.90;;
18378;SDS011;27025;51.986;5.984;2023-04-03T14:46:13;4.60;;;1.73;;
18378;SDS011;27025;51.986;5.984;2023-04-03T14:48:40;2.40;;;1.50;;
18378;SDS011;27025;51.986;5.984;2023-04-03T14:51:06;3.37;;;1.87;;
18378;SDS011;27025;51.986;5.984;2023-04-03T14:53:32;3.00;;;1.70;;
18378;SDS011;27025;51.986;5.984;2023-04-03T14:55:58;3.20;;;1.87;;
18378;SDS011;27025;51.986;5.984;2023-04-03T14:58:24;3.03;;;1.90;;
18378;SDS011;27025;51.986;5.984;2023-04-03T15:00:51;3.30;;;1.80;;
18378;SDS011;27025;51.986;5.984;2023-04-03T15:03:18;3.73;;;2.07;;
18378;SDS011;27025;51.986;5.984;2023-04-03T15:05:45;2.67;;;1.70;;
18378;SDS011;27025;51.986;5.984;2023-04-03T15:08:16;4.00;;;1.87;;
18378;SDS011;27025;51.986;5.984;2023-04-03T15:10:43;3.70;;;1.90;;
18378;SDS011;27025;51.986;5.984;2023-04-03T15:13:10;4.55;;;2.03;;
18378;SDS011;27025;51.986;5.984;2023-04-03T15:15:37;4.20;;;2.10;;
18378;SDS011;27025;51.986;5.984;2023-04-03T15:18:03;4.27;;;2.00;;
18378;SDS011;27025;51.986;5.984;2023-04-03T15:20:30;4.63;;;2.10;;
18378;SDS011;27025;51.986;5.984;2023-04-03T15:22:58;4.82;;;2.20;;
18378;SDS011;27025;51.986;5.984;2023-04-03T15:25:27;4.30;;;2.10;;
18378;SDS011;27025;51.986;5.984;2023-04-03T15:27:53;4.13;;;2.15;;
18378;SDS011;27025;51.986;5.984;2023-04-03T15:30:20;3.55;;;1.95;;
18378;SDS011;27025;51.986;5.984;2023-04-03T15:32:46;5.60;;;2.17;;
18378;SDS011;27025;51.986;5.984;2023-04-03T15:35:12;3.88;;;2.05;;
18378;SDS011;27025;51.986;5.984;2023-04-03T15:37:39;3.60;;;2.00;;
18378;SDS011;27025;51.986;5.984;2023-04-03T15:40:05;4.30;;;2.05;;
18378;SDS011;27025;51.986;5.984;2023-04-03T15:42:31;4.60;;;2.10;;
18378;SDS011;27025;51.986;5.984;2023-04-03T15:44:57;3.75;;;2.00;;
18378;SDS011;27025;51.986;5.984;2023-04-03T15:47:24;4.88;;;2.10;;
18378;SDS011;27025;51.986;5.984;2023-04-03T15:49:50;3.87;;;2.23;;
18378;SDS011;27025;51.986;5.984;2023-04-03T15:52:16;4.28;;;2.08;;
18378;SDS011;27025;51.986;5.984;2023-04-03T15:54:42;4.15;;;2.10;;
18378;SDS011;27025;51.986;5.984;2023-04-03T15:57:08;3.30;;;2.00;;
18378;SDS011;27025;51.986;5.984;2023-04-03T15:59:34;4.15;;;2.20;;
18378;SDS011;27025;51.986;5.984;2023-04-03T16:02:00;3.28;;;2.00;;
18378;SDS011;27025;51.986;5.984;2023-04-03T16:04:27;3.65;;;2.00;;
18378;SDS011;27025;51.986;5.984;2023-04-03T16:06:53;5.38;;;2.13;;
18378;SDS011;27025;51.986;5.984;2023-04-03T16:09:19;4.68;;;2.28;;
18378;SDS011;27025;51.986;5.984;2023-04-03T16:11:45;3.35;;;1.90;;
18378;SDS011;27025;51.986;5.984;2023-04-03T16:14:11;3.83;;;2.13;;
18378;SDS011;27025;51.986;5.984;2023-04-03T16:16:37;4.82;;;2.10;;
18378;SDS011;27025;51.986;5.984;2023-04-03T16:19:03;4.97;;;2.30;;
18378;SDS011;27025;51.986;5.984;2023-04-03T16:24:21;4.00;;;2.30;;
18378;SDS011;27025;51.986;5.984;2023-04-03T16:26:48;4.00;;;2.08;;
18378;SDS011;27025;51.986;5.984;2023-04-03T16:29:15;4.30;;;2.20;;